Date,TemperatureHighF,TemperatureAvgF,TemperatureLowF,DewpointHighF,DewpointAvgF,DewpointLowF,HumidityHigh,HumidityAvg,HumidityLow,PressureMaxIn,PressureMinIn,WindSpeedMaxMPH,WindSpeedAvgMPH,GustSpeedMaxMPH,PrecipitationSumIn
2013-1-1,55.0,42.9,34.0,40.0,36.8,32.0,95,81,51,30.26,30.19,1,0,9,0.01
2013-1-2,62.0,41.6,30.0,39.0,34.1,28.0,97,78,40,30.23,30.11,2,0,5,0.01
2013-1-3,62.0,40.3,30.0,42.0,35.0,28.0,96,83,42,30.25,30.14,2,0,5,0.01
2013-1-4,62.0,44.4,33.0,42.0,37.1,31.0,96,79,41,30.27,30.15,1,0,8,0.01
2013-1-5,56.0,46.0,35.0,48.0,42.4,33.0,95,88,72,30.24,30.05,2,0,12,0.07
2013-1-6,49.0,45.6,39.0,47.0,43.6,37.0,96,93,83,30.17,30.03,3,0,9,0.16
2013-1-7,60.0,45.7,36.0,50.0,42.4,35.0,97,89,69,30.24,30.13,2,0,5,0.02
2013-1-8,64.0,48.1,39.0,51.0,43.8,38.0,97,86,58,30.22,30.10,3,0,6,0.01
2013-1-9,41.0,41.0,41.0,39.0,39.0,39.0,94,94,94,30.12,30.12,0,0,1,0.00
2013-1-13,52.0,42.2,31.0,34.0,27.7,18.0,92,60,28,30.24,30.14,3,0,8,0.00
2013-1-14,53.0,38.7,29.0,34.0,23.6,17.0,89,60,25,30.38,30.19,3,0,8,0.00
2013-1-15,56.0,40.6,29.0,34.0,28.9,25.0,91,67,33,30.45,30.37,3,0,6,0.00
2013-1-16,61.0,42.0,30.0,39.0,32.4,28.0,94,73,33,30.41,30.23,2,0,6,0.00
2013-1-17,68.0,45.1,30.0,40.0,34.8,28.0,95,72,33,30.23,30.11,2,0,5,0.01
2013-1-18,69.0,47.5,33.0,43.0,36.8,31.0,94,71,34,30.20,30.09,3,0,5,0.01
2013-1-19,68.0,48.0,32.0,43.0,37.0,30.0,94,70,36,30.22,30.12,3,0,5,0.00
2013-1-20,72.0,48.1,33.0,42.0,35.9,31.0,94,69,26,30.20,30.09,1,-7,4,0.00
2013-1-21,69.0,47.4,32.0,43.0,36.5,29.0,94,71,30,30.15,30.04,1,0,8,0.00
2013-1-22,63.0,47.5,35.0,44.0,38.6,33.0,94,74,41,30.07,29.97,2,0,5,0.00
2013-1-23,54.0,49.1,45.0,50.0,45.3,40.0,95,87,77,30.06,29.93,1,0,5,0.06
2013-1-24,58.0,53.1,50.0,53.0,50.7,48.0,97,91,81,30.16,30.03,1,0,3,0.06
2013-1-25,65.0,56.2,50.0,57.0,52.8,48.0,96,89,71,30.16,30.01,3,0,7,0.02
2013-1-26,57.0,50.1,44.0,49.0,44.0,39.0,96,81,55,30.07,29.98,7,1,14,0.01
2013-1-27,56.0,48.0,40.0,42.0,39.1,29.0,91,73,37,30.15,30.06,4,1,10,0.00
2013-1-28,57.0,48.5,40.0,44.0,41.4,37.0,93,77,58,30.27,30.13,5,1,12,0.00
2013-1-29,60.0,48.2,39.0,46.0,41.7,37.0,94,80,56,30.33,30.24,5,1,9,0.00
2013-1-30,70.0,52.1,39.0,46.0,41.1,37.0,94,71,37,30.31,30.22,3,0,6,0.01
2013-1-31,68.0,53.2,36.0,47.0,43.3,34.0,95,72,45,30.26,30.14,2,0,9,0.00
2013-2-1,69.0,51.3,37.0,50.0,43.6,35.0,96,77,46,30.18,30.08,2,0,6,0.00
2013-2-2,59.0,48.4,42.0,51.0,45.0,40.0,94,88,74,30.27,30.18,2,0,6,0.00
2013-2-3,60.0,49.1,40.0,47.0,43.0,38.0,94,81,59,30.23,30.11,3,0,9,0.01
2013-2-4,59.0,47.0,39.0,50.0,44.1,37.0,96,90,71,30.16,30.04,3,0,7,0.01
2013-2-5,56.0,49.7,44.0,48.0,44.4,42.0,95,82,72,30.12,30.06,6,1,14,0.00
2013-2-6,47.0,44.9,42.0,43.0,41.2,39.0,89,87,86,30.13,30.12,1,0,2,0.00
2013-11-8,66.0,60.8,55.0,55.0,50.1,45.0,72,68,65,30.04,29.95,327,1,327,0.00
2013-11-9,71.0,59.1,46.0,54.0,46.9,-99.9,93,69,48,30.02,29.94,2,0,5,0.00
2013-11-10,66.0,51.1,41.0,54.0,46.7,39.0,97,86,62,30.10,30.01,2,0,7,0.01
2013-11-11,65.0,56.1,47.0,53.0,50.5,46.0,95,83,58,30.14,30.05,2,0,7,0.01
2013-11-12,74.0,59.0,49.0,54.0,50.5,45.0,90,75,47,30.24,30.12,3,0,7,0.00
2013-11-13,76.0,56.7,44.0,57.0,49.3,42.0,95,79,46,30.23,30.08,2,0,6,0.00
2013-11-14,65.0,54.5,47.0,56.0,50.0,44.0,96,85,67,30.10,29.87,4,0,10,0.00
2013-11-15,67.0,52.5,41.0,47.0,42.0,38.0,95,71,37,29.87,29.71,3,0,8,0.00
2013-11-16,66.0,49.2,39.0,50.0,41.9,-99.9,95,80,53,29.91,29.76,6,1,10,0.00
2013-11-17,64.0,50.3,40.0,51.0,44.7,39.0,97,83,59,30.06,29.91,3,0,10,0.01
2013-11-18,62.0,49.3,40.0,50.0,44.4,38.0,96,84,58,30.13,30.06,4,0,10,0.01
2013-11-19,64.0,55.1,46.0,57.0,51.5,44.0,96,88,65,30.09,29.92,1,0,7,0.47
2013-11-20,62.0,55.8,48.0,60.0,54.4,47.0,97,95,84,29.92,29.83,5,0,10,0.98
2013-11-21,54.0,52.3,49.0,48.0,35.2,28.0,97,58,36,29.98,29.88,3,1,9,0.02
2013-11-22,72.0,55.1,38.0,37.0,29.4,20.0,80,42,18,30.01,29.88,5,0,12,0.01
2013-11-23,70.0,50.4,38.0,44.0,36.3,-99.9,90,66,29,30.08,29.94,1,0,6,0.00
2013-11-24,66.0,49.2,37.0,47.0,41.3,35.0,96,77,45,30.22,30.08,2,0,5,0.00
2013-11-25,67.0,49.2,36.0,47.0,41.6,34.0,96,78,42,30.30,30.22,4,0,6,0.01
2013-11-26,64.0,50.8,40.0,48.0,43.8,38.0,96,79,51,30.24,30.00,1,0,4,0.01
2013-11-27,65.0,51.2,39.0,49.0,44.5,37.0,96,80,52,30.01,29.81,2,0,5,0.00
2013-11-28,70.0,53.5,44.0,49.0,44.6,42.0,94,75,42,30.05,29.84,3,0,6,0.00
2013-11-29,71.0,51.4,39.0,50.0,43.3,37.0,95,77,40,30.19,30.05,2,0,5,0.00
2013-11-30,70.0,49.5,39.0,53.0,42.7,-99.9,96,81,45,30.24,30.16,2,0,6,0.00
2013-12-1,71.0,51.0,39.0,53.0,44.5,37.0,97,81,49,30.32,30.19,2,0,5,0.01
2013-12-2,68.0,50.3,39.0,54.0,45.9,37.0,97,86,61,30.21,29.96,4,0,10,0.01
2013-12-3,54.0,49.0,35.0,51.0,40.7,32.0,95,74,52,29.96,29.84,8,2,17,0.01
2013-12-4,56.0,40.2,30.0,33.0,28.6,21.0,94,69,31,30.06,29.92,2,0,6,0.00
2013-12-5,53.0,37.6,27.0,29.0,23.7,16.0,93,63,26,30.16,30.06,2,0,6,0.00
2013-12-6,56.0,42.8,31.0,48.0,35.5,27.0,95,78,44,30.17,29.90,6,1,13,0.23
2013-12-7,50.0,42.2,32.0,47.0,32.2,-99.9,94,72,44,30.22,29.91,7,2,19,0.21
2013-12-8,49.0,35.4,27.0,29.0,26.9,23.0,94,74,41,30.31,30.21,2,0,6,0.00
2013-12-9,55.0,36.6,26.0,32.0,23.5,18.0,90,64,30,30.40,30.30,3,0,8,0.00
2013-12-10,56.0,39.2,26.0,35.0,28.9,23.0,94,70,37,30.39,30.19,2,0,7,0.01
2013-12-11,61.0,41.1,29.0,36.0,30.6,27.0,94,71,31,30.23,30.15,2,0,5,0.01
2013-12-12,64.0,42.0,29.0,40.0,32.9,27.0,94,75,35,30.25,30.14,2,0,5,0.00
2013-12-13,62.0,42.9,31.0,45.0,36.3,29.0,95,80,44,30.32,30.21,2,0,6,0.00
2013-12-14,66.0,44.4,32.0,42.0,33.9,-99.9,95,73,35,30.38,30.29,2,0,6,0.01
2013-12-15,65.0,44.6,32.0,42.0,36.0,30.0,94,76,38,30.35,30.21,2,0,5,0.01
2013-12-16,73.0,49.6,36.0,42.0,37.4,33.0,95,68,29,30.22,30.09,1,0,5,0.00
2013-12-17,66.0,48.4,37.0,46.0,39.8,35.0,92,75,43,30.15,30.01,1,0,3,0.00
2013-12-18,61.0,47.7,38.0,49.0,42.7,36.0,93,84,63,30.01,29.78,3,0,6,0.00
2013-12-19,58.0,48.8,39.0,44.0,38.6,26.0,94,70,42,29.92,29.71,7,1,22,0.00
2013-12-20,64.0,45.7,32.0,32.0,24.3,11.0,86,50,14,29.99,29.91,3,0,6,0.00
2013-12-21,64.0,46.1,36.0,50.0,38.4,-99.9,93,77,58,30.06,29.95,3,0,9,0.00
2013-12-22,72.0,50.2,36.0,49.0,39.4,35.0,97,72,30,30.26,30.05,3,0,7,0.00
2013-12-23,64.0,47.5,36.0,46.0,40.1,34.0,95,78,45,30.36,30.26,3,0,7,0.00
2013-12-24,74.0,49.8,37.0,48.0,40.3,35.0,95,74,33,30.32,30.18,1,0,5,0.01
2013-12-25,70.0,48.2,35.0,45.0,38.7,33.0,94,73,37,30.27,30.16,2,0,5,0.01
2013-12-26,73.0,49.6,34.0,48.0,39.7,32.0,95,73,31,30.24,30.13,3,0,6,0.00
2013-12-27,63.0,45.1,34.0,46.0,39.6,32.0,95,83,49,30.21,30.09,1,0,4,0.00
2013-12-28,67.0,45.9,33.0,44.0,33.6,-99.9,96,70,28,30.13,30.01,2,0,4,0.01
2013-12-29,72.0,51.0,36.0,35.0,29.2,20.0,81,51,17,30.15,30.06,2,0,6,0.00
2013-12-30,65.0,45.5,33.0,41.0,34.8,29.0,92,69,33,30.24,30.15,2,0,6,0.00
2013-12-31,61.0,44.3,34.0,47.0,39.1,32.0,94,83,57,30.25,30.13,4,0,8,0.00
2014-1-1,62.0,45.6,33.0,46.0,38.9,31.0,95,80,55,30.19,30.10,2,0,5,0.00
2014-1-2,71.0,49.7,35.0,43.0,37.5,33.0,95,68,29,30.16,30.03,2,0,5,0.00